Time;durP1;ratioP1;P1;durP2;ratioP2;P2;SDS_P1;SDS_P2;PMS_P1;PMS_P2;Temp;Humidity;BMP_temperature;BMP_pressure;BME280_temperature;BME280_humidity;BME280_pressure;Samples;Min_cycle;Max_cycle;Signal;HPM_P1;HPM_P2
2022/01/02 00:01:13;;;;;;;52.40;36.10;;;;;;;8.60;100.00;99747.20;105122;1271;68763;-73
2022/01/02 00:03:41;;;;;;;50.70;36.70;;;;;;;8.60;100.00;99742.56;105221;1271;74323;-74
2022/01/02 00:06:08;;;;;;;56.10;37.50;;;;;;;8.59;100.00;99739.42;105408;1271;60581;-73
2022/01/02 00:08:46;;;;;;;56.80;38.50;;;;;;;8.59;100.00;99738.71;105889;1271;61253;-73
2022/01/02 00:11:21;;;;;;;55.70;40.70;;;;;;;8.60;100.00;99735.31;106092;1271;74411;-73
2022/01/02 00:13:53;;;;;;;61.00;39.00;;;;;;;8.62;100.00;99732.05;105227;1271;68249;-73
2022/01/02 00:16:21;;;;;;;59.00;41.60;;;;;;;8.61;100.00;99732.11;105117;1271;74128;-75
2022/01/02 00:19:04;;;;;;;61.20;41.00;;;;;;;8.59;100.00;99728.98;105113;1271;60468;-72
2022/01/02 00:21:39;;;;;;;58.80;40.10;;;;;;;8.60;100.00;99729.13;105061;1271;61225;-73
2022/01/02 00:24:12;;;;;;;53.00;38.40;;;;;;;8.60;100.00;99729.14;105082;1271;74961;-72
2022/01/02 00:26:43;;;;;;;52.50;36.90;;;;;;;8.58;100.00;99729.02;105269;1271;70534;-72
2022/01/02 00:29:11;;;;;;;54.40;39.10;;;;;;;8.55;100.00;99732.34;105079;1271;73281;-72
2022/01/02 00:31:42;;;;;;;56.90;37.90;;;;;;;8.55;100.00;99729.88;105108;1271;60500;-72
2022/01/02 00:34:09;;;;;;;51.60;37.20;;;;;;;8.54;100.00;99721.94;105124;1271;60950;-72
2022/01/02 00:36:37;;;;;;;53.10;38.70;;;;;;;8.54;100.00;99720.52;105296;1271;74904;-74
2022/01/02 00:39:06;;;;;;;54.40;40.30;;;;;;;8.54;100.00;99718.61;105499;1271;67820;-72
2022/01/02 00:41:54;;;;;;;61.40;40.00;;;;;;;8.54;100.00;99724.40;105403;1271;74273;-74
2022/01/02 00:44:32;;;;;;;59.90;40.10;;;;;;;8.54;100.00;99724.08;105527;1271;60449;-73
2022/01/02 00:47:23;;;;;;;59.10;41.40;;;;;;;8.55;100.00;99723.49;105392;1271;60915;-72
2022/01/02 00:50:03;;;;;;;60.60;43.30;;;;;;;8.54;100.00;99729.58;105964;1271;74493;-73
2022/01/02 00:52:34;;;;;;;64.80;45.00;;;;;;;8.53;100.00;99730.34;107575;1271;70193;-72
2022/01/02 00:55:04;;;;;;;64.40;47.50;;;;;;;8.52;100.00;99728.45;107816;1271;71432;-73
2022/01/02 00:57:33;;;;;;;;;;;;;;;8.52;100.00;99724.55;107687;1271;60516;-72
2022/01/02 01:00:08;;;;;;;54.80;38.80;;;;;;;8.52;100.00;99719.92;107639;1271;60558;-73
2022/01/02 01:02:40;;;;;;;52.70;37.20;;;;;;;8.53;100.00;99714.73;104968;1271;74457;-73
2022/01/02 01:05:08;;;;;;;50.70;35.60;;;;;;;8.53;100.00;99715.45;105119;1271;69476;-73
2022/01/02 01:07:37;;;;;;;54.10;39.00;;;;;;;8.53;100.00;99713.49;104964;1271;74267;-72
2022/01/02 01:10:08;;;;;;;44.60;34.50;;;;;;;8.53;100.00;99708.17;104807;1271;157823;-73
2022/01/02 01:12:36;;;;;;;45.70;33.00;;;;;;;8.55;100.00;99704.89;105154;1271;60347;-73
2022/01/02 01:15:06;;;;;;;43.60;29.90;;;;;;;8.56;100.00;99701.86;105103;1271;73519;-74
2022/01/02 01:17:35;;;;;;;46.20;30.70;;;;;;;8.56;100.00;99702.91;105288;1271;70088;-73
2022/01/02 01:20:04;;;;;;;44.10;30.70;;;;;;;8.54;100.00;99698.37;105071;1271;73433;-73
2022/01/02 01:22:31;;;;;;;40.20;29.20;;;;;;;8.55;100.00;99694.27;105161;1271;60577;-73
2022/01/02 01:24:58;;;;;;;42.80;28.80;;;;;;;8.55;100.00;99691.64;105103;1271;60353;-72
2022/01/02 01:27:25;;;;;;;38.10;28.90;;;;;;;8.56;100.00;99690.17;105073;1271;74389;-73
2022/01/02 01:29:52;;;;;;;49.60;33.00;;;;;;;8.55;100.00;99686.84;105214;1270;69340;-75
2022/01/02 01:32:18;;;;;;;37.70;27.80;;;;;;;8.56;100.00;99687.84;105031;1271;60363;-73
2022/01/02 01:34:45;;;;;;;44.30;29.90;;;;;;;8.55;100.00;99686.85;105027;1271;61912;-73
2022/01/02 01:37:12;;;;;;;46.90;33.80;;;;;;;8.53;100.00;99683.38;105129;1271;60935;-73
2022/01/02 01:39:38;;;;;;;49.00;35.80;;;;;;;8.53;100.00;99683.23;105077;1271;73938;-72
2022/01/02 01:42:08;;;;;;;40.90;30.40;;;;;;;8.52;100.00;99678.12;105123;1271;69186;-74
2022/01/02 01:44:51;;;;;;;42.70;29.90;;;;;;;8.51;100.00;99671.61;104895;1271;73445;-72
2022/01/02 01:47:18;;;;;;;37.30;26.40;;;;;;;8.51;100.00;99666.30;105090;1271;60553;-73
2022/01/02 01:49:44;;;;;;;43.30;29.10;;;;;;;8.51;100.00;99664.89;104955;1271;62666;-72
2022/01/02 01:52:11;;;;;;;41.70;28.30;;;;;;;8.50;100.00;99675.59;105077;1271;60477;-72
2022/01/02 01:54:37;;;;;;;40.20;28.30;;;;;;;8.50;100.00;99675.55;105051;1271;60573;-74
2022/01/02 01:57:05;;;;;;;39.90;28.10;;;;;;;8.50;100.00;99671.83;105129;1271;73454;-75
2022/01/02 01:59:32;;;;;;;38.30;28.70;;;;;;;8.52;100.00;99666.98;105110;1271;60464;-73
2022/01/02 02:01:58;;;;;;;40.20;26.60;;;;;;;8.53;100.00;99666.73;105103;1271;61037;-73
2022/01/02 02:04:25;;;;;;;36.60;27.70;;;;;;;8.54;100.00;99663.50;105074;1271;75588;-74
2022/01/02 02:06:55;;;;;;;38.80;28.20;;;;;;;8.53;100.00;99660.36;105069;1271;69517;-73
2022/01/02 02:09:24;;;;;;;39.20;27.80;;;;;;;8.54;100.00;99663.34;105104;1271;73269;-73
2022/01/02 02:11:51;;;;;;;41.70;30.00;;;;;;;8.55;100.00;99659.59;105097;1271;60445;-72
2022/01/02 02:14:18;;;;;;;38.90;28.20;;;;;;;8.54;100.00;99655.02;105093;1271;60824;-73
2022/01/02 02:16:45;;;;;;;45.20;27.50;;;;;;;8.55;100.00;99649.66;105083;1271;75285;-71
2022/01/02 02:19:12;;;;;;;40.20;28.30;;;;;;;8.58;100.00;99646.49;105141;1271;69170;-72
2022/01/02 02:21:38;;;;;;;40.50;29.30;;;;;;;8.60;100.00;99645.73;105045;1271;60415;-74
2022/01/02 02:24:07;;;;;;;36.70;28.00;;;;;;;8.61;100.00;99635.91;105013;1271;61322;-72
2022/01/02 02:26:36;;;;;;;38.40;29.80;;;;;;;8.61;100.00;99634.32;105370;1271;60505;-74
2022/01/02 02:29:05;;;;;;;41.60;30.50;;;;;;;8.61;100.00;99627.95;105274;1271;75256;-71
2022/01/02 02:31:32;;;;;;;41.40;29.10;;;;;;;8.61;100.00;99617.84;105101;1271;69156;-71
2022/01/02 02:33:58;;;;;;;43.40;28.50;;;;;;;8.63;100.00;99611.36;105048;1271;60384;-74
2022/01/02 02:36:25;;;;;;;39.60;29.20;;;;;;;8.63;100.00;99605.67;105031;1271;61414;-73
2022/01/02 02:38:51;;;;;;;37.30;27.30;;;;;;;8.61;100.00;99605.47;105013;1271;61926;-73
2022/01/02 02:41:18;;;;;;;38.80;26.30;;;;;;;8.58;100.00;99604.35;105094;1271;60886;-72
2022/01/02 02:43:52;;;;;;;36.50;28.80;;;;;;;8.57;100.00;99603.48;104928;1271;68227;-73
2022/01/02 02:49:05;;;;;;;40.70;29.10;;;;;;;8.53;100.00;99606.87;105088;1271;60465;-74
2022/01/02 02:54:17;;;;;;;40.80;30.40;;;;;;;8.49;100.00;99608.48;105075;1271;74458;-74
2022/01/02 02:56:57;;;;;;;38.80;29.60;;;;;;;8.47;100.00;99606.27;105116;1269;70553;-73
2022/01/02 02:59:29;;;;;;;42.80;30.90;;;;;;;8.47;100.00;99605.05;105084;1271;71584;-73
2022/01/02 03:01:56;;;;;;;38.60;30.10;;;;;;;8.47;100.00;99604.67;105038;1271;61222;-73
2022/01/02 03:04:23;;;;;;;38.70;30.30;;;;;;;8.47;100.00;99606.68;105131;1271;60775;-73
2022/01/02 03:06:51;;;;;;;38.30;30.70;;;;;;;8.46;100.00;99606.00;105047;1271;74890;-72
2022/01/02 03:09:36;;;;;;;39.80;30.30;;;;;;;8.45;100.00;99595.05;105098;1271;69521;-72
2022/01/02 03:12:07;;;;;;;41.50;31.40;;;;;;;8.44;100.00;99589.61;105070;1271;73277;-73
2022/01/02 03:14:33;;;;;;;40.00;31.90;;;;;;;8.45;100.00;99589.95;104903;1271;60500;-73
2022/01/02 03:17:00;;;;;;;39.60;31.30;;;;;;;8.45;100.00;99591.35;105063;1271;60413;-73
2022/01/02 03:19:27;;;;;;;40.30;30.80;;;;;;;8.44;100.00;99584.12;105071;1271;75397;-72
2022/01/02 03:21:53;;;;;;;35.50;29.80;;;;;;;8.42;100.00;99577.52;105080;1271;60566;-74
2022/01/02 03:24:20;;;;;;;37.10;31.70;;;;;;;8.42;100.00;99577.52;105082;1271;72208;-72
2022/01/02 03:26:46;;;;;;;38.20;31.10;;;;;;;8.42;100.00;99574.12;105073;1271;60485;-72
2022/01/02 03:29:13;;;;;;;39.50;31.80;;;;;;;8.43;100.00;99566.47;105077;1271;60887;-72
2022/01/02 03:31:39;;;;;;;41.40;31.40;;;;;;;8.44;100.00;99561.45;105016;1271;60457;-72
2022/01/02 03:34:06;;;;;;;42.00;33.50;;;;;;;8.43;100.00;99564.34;105075;1271;60495;-72
2022/01/02 03:36:32;;;;;;;46.10;32.90;;;;;;;8.42;100.00;99559.06;104956;1271;60446;-71
2022/01/02 03:38:59;;;;;;;41.80;32.60;;;;;;;8.42;100.00;99557.31;105068;1271;60471;-73
2022/01/02 03:41:25;;;;;;;42.60;32.50;;;;;;;8.41;100.00;99555.96;105051;1271;61829;-73
2022/01/02 03:43:52;;;;;;;45.50;35.40;;;;;;;8.39;100.00;99558.34;105060;1271;75360;-72
2022/01/02 03:46:19;;;;;;;45.60;36.50;;;;;;;8.38;100.00;99556.95;105099;1271;69605;-72
2022/01/02 03:48:45;;;;;;;43.80;37.00;;;;;;;8.37;100.00;99553.98;104982;1271;72830;-72
2022/01/02 03:51:12;;;;;;;40.00;33.60;;;;;;;8.35;100.00;99547.17;105067;1271;60593;-71
2022/01/02 03:53:38;;;;;;;38.80;34.40;;;;;;;8.33;100.00;99538.04;105102;1270;61811;-73
2022/01/02 03:56:06;;;;;;;45.10;34.50;;;;;;;8.31;100.00;99536.75;105110;1271;60383;-73
2022/01/02 03:58:33;;;;;;;38.20;33.00;;;;;;;8.31;100.00;99536.20;105051;1271;70521;-74
2022/01/02 04:00:59;;;;;;;41.90;33.10;;;;;;;8.33;100.00;99532.59;105084;1271;72165;-75
2022/01/02 04:03:26;;;;;;;41.50;32.30;;;;;;;8.34;100.00;99529.16;104972;1271;61144;-73
2022/01/02 04:05:52;;;;;;;39.70;33.00;;;;;;;8.35;100.00;99525.01;105088;1271;60492;-73
2022/01/02 04:08:19;;;;;;;41.50;33.00;;;;;;;8.36;100.00;99515.95;105040;1270;60593;-73
2022/01/02 04:10:45;;;;;;;39.60;33.00;;;;;;;8.35;100.00;99522.36;105011;1271;60503;-73
2022/01/02 04:13:12;;;;;;;40.40;30.90;;;;;;;8.35;100.00;99525.02;105254;1271;60431;-72
2022/01/02 04:15:38;;;;;;;36.90;31.10;;;;;;;8.34;100.00;99529.89;105259;1271;60581;-74
2022/01/02 04:18:05;;;;;;;47.50;37.30;;;;;;;8.32;100.00;99535.08;105089;1271;60580;-72
2022/01/02 04:20:31;;;;;;;43.70;34.80;;;;;;;8.32;100.00;99534.40;105064;1271;60364;-72
2022/01/02 04:22:58;;;;;;;45.00;36.70;;;;;;;8.33;100.00;99530.43;105126;1271;60383;-73
2022/01/02 04:25:24;;;;;;;47.10;36.00;;;;;;;8.36;100.00;99527.45;105105;1271;60415;-73
2022/01/02 04:27:51;;;;;;;44.00;35.60;;;;;;;8.37;100.00;99515.02;105084;1271;60536;-71
2022/01/02 04:30:18;;;;;;;40.10;34.30;;;;;;;8.38;100.00;99505.60;105091;1271;61089;-72
2022/01/02 04:32:48;;;;;;;43.90;38.30;;;;;;;8.39;100.00;99507.33;105062;1271;74497;-72
2022/01/02 04:35:15;;;;;;;48.10;39.60;;;;;;;8.39;100.00;99506.98;105090;1271;66853;-73
2022/01/02 04:37:43;;;;;;;48.90;39.00;;;;;;;8.39;100.00;99504.32;105082;1271;74574;-73
2022/01/02 04:40:10;;;;;;;49.40;39.90;;;;;;;8.40;100.00;99504.64;105111;1271;60594;-73
2022/01/02 04:42:37;;;;;;;50.40;40.90;;;;;;;8.40;100.00;99508.00;105097;1271;60363;-72
2022/01/02 04:45:05;;;;;;;46.80;36.30;;;;;;;8.40;100.00;99507.81;105013;1271;73945;-73
2022/01/02 04:47:31;;;;;;;45.50;38.10;;;;;;;8.40;100.00;99503.24;105073;1271;68656;-73
2022/01/02 04:49:58;;;;;;;46.60;38.70;;;;;;;8.40;100.00;99492.96;105074;1271;73733;-73
2022/01/02 04:52:25;;;;;;;49.40;39.80;;;;;;;8.40;100.00;99484.13;105087;1271;60567;-72
2022/01/02 04:54:51;;;;;;;46.40;41.10;;;;;;;8.42;100.00;99484.70;105020;1271;60851;-72
2022/01/02 04:57:18;;;;;;;50.20;41.70;;;;;;;8.45;100.00;99479.77;105133;1271;75467;-72
2022/01/02 04:59:45;;;;;;;50.20;43.30;;;;;;;8.45;100.00;99477.82;105104;1271;68624;-72
2022/01/02 05:02:11;;;;;;;50.60;40.80;;;;;;;8.43;100.00;99475.09;105115;1271;60631;-73
2022/01/02 05:04:38;;;;;;;47.20;42.00;;;;;;;8.43;100.00;99474.23;105035;1271;61155;-73
2022/01/02 05:07:05;;;;;;;47.60;39.80;;;;;;;8.42;100.00;99469.11;105142;1271;61054;-74
2022/01/02 05:09:32;;;;;;;49.30;41.60;;;;;;;8.42;100.00;99463.28;105139;1271;72669;-71
2022/01/02 05:11:59;;;;;;;44.20;39.50;;;;;;;8.42;100.00;99458.52;105740;1271;69356;-72
2022/01/02 05:14:25;;;;;;;49.30;40.40;;;;;;;8.41;100.00;99454.86;105613;1271;74261;-71
2022/01/02 05:16:52;;;;;;;41.80;37.20;;;;;;;8.37;100.00;99450.58;105683;1271;60559;-72
2022/01/02 05:19:18;;;;;;;46.50;39.80;;;;;;;8.30;100.00;99447.92;104978;1271;60575;-72
2022/01/02 05:21:45;;;;;;;46.60;38.10;;;;;;;8.24;100.00;99434.24;105120;1271;60467;-72
2022/01/02 05:24:12;;;;;;;43.80;38.00;;;;;;;8.22;100.00;99425.65;105167;1271;60373;-72
2022/01/02 05:26:39;;;;;;;45.50;38.10;;;;;;;8.19;100.00;99428.65;105155;1270;73366;-72
2022/01/02 05:29:05;;;;;;;47.70;38.20;;;;;;;8.14;100.00;99421.10;105120;1271;60587;-73
2022/01/02 05:31:32;;;;;;;46.30;37.50;;;;;;;8.04;100.00;99418.79;105110;1271;60472;-73
2022/01/02 05:33:59;;;;;;;43.00;38.00;;;;;;;7.93;100.00;99422.53;104899;1271;74279;-72
2022/01/02 05:36:25;;;;;;;45.10;36.80;;;;;;;7.85;100.00;99422.73;105127;1271;69292;-72
2022/01/02 05:38:52;;;;;;;45.60;40.30;;;;;;;7.78;100.00;99418.66;105119;1271;72318;-72
2022/01/02 05:41:18;;;;;;;47.70;40.00;;;;;;;7.70;100.00;99413.55;105134;1271;60498;-72
2022/01/02 05:43:45;;;;;;;46.00;40.00;;;;;;;7.64;100.00;99412.24;105128;1271;60792;-72
2022/01/02 05:46:12;;;;;;;42.70;37.30;;;;;;;7.58;100.00;99400.00;104963;1271;73618;-72
2022/01/02 05:48:38;;;;;;;37.30;32.90;;;;;;;7.51;100.00;99388.33;105130;1271;70121;-72
2022/01/02 05:51:05;;;;;;;35.80;31.90;;;;;;;7.39;100.00;99387.08;105201;1271;73312;-72
2022/01/02 05:53:31;;;;;;;38.50;32.50;;;;;;;7.29;100.00;99381.54;105081;1271;60469;-72
2022/01/02 05:55:58;;;;;;;34.30;30.50;;;;;;;7.21;100.00;99376.98;105177;1271;60587;-72
2022/01/02 05:58:25;;;;;;;28.60;25.20;;;;;;;7.11;100.00;99378.50;105270;1271;74282;-72
2022/01/02 06:00:52;;;;;;;33.60;28.00;;;;;;;7.02;100.00;99373.11;105185;1271;69173;-73
2022/01/02 06:03:18;;;;;;;28.40;25.40;;;;;;;6.93;100.00;99370.00;105145;1271;74370;-73
2022/01/02 06:05:46;;;;;;;29.20;25.30;;;;;;;6.84;100.00;99367.93;104941;1271;60361;-73
2022/01/02 06:08:13;;;;;;;30.20;24.90;;;;;;;6.77;100.00;99357.48;105175;1271;62043;-73
2022/01/02 06:10:39;;;;;;;29.20;24.10;;;;;;;6.71;100.00;99355.98;105067;1271;74498;-74
2022/01/02 06:13:06;;;;;;;35.40;27.50;;;;;;;6.64;100.00;99352.42;105345;1271;70567;-72
2022/01/02 06:15:33;;;;;;;28.90;24.90;;;;;;;6.58;100.00;99349.50;105304;1271;71490;-73
2022/01/02 06:17:59;;;;;;;26.20;23.40;;;;;;;6.50;100.00;99353.73;105526;1271;61287;-73
2022/01/02 06:20:26;;;;;;;25.80;21.50;;;;;;;6.42;100.00;99346.86;105895;1271;60337;-74
2022/01/02 06:22:54;;;;;;;23.30;20.80;;;;;;;6.35;100.00;99343.45;107002;1271;74467;-74
2022/01/02 06:25:22;;;;;;;23.60;21.00;;;;;;;6.29;100.00;99341.25;106834;1271;70062;-73
2022/01/02 06:27:49;;;;;;;20.90;18.80;;;;;;;6.26;100.00;99344.20;107085;1272;73258;-73
2022/01/02 06:30:16;;;;;;;20.40;17.30;;;;;;;6.22;100.00;99342.30;106809;1271;60410;-73
2022/01/02 06:32:43;;;;;;;22.10;19.30;;;;;;;6.19;100.00;99343.30;107530;1271;61053;-74
2022/01/02 06:35:11;;;;;;;21.20;17.60;;;;;;;6.14;100.00;99338.55;105578;1271;74200;-75
2022/01/02 06:37:37;;;;;;;22.60;18.10;;;;;;;6.09;100.00;99334.36;105021;1271;70842;-74
2022/01/02 06:40:05;;;;;;;22.90;18.70;;;;;;;6.08;100.00;99326.12;105165;1271;73303;-73
2022/01/02 06:42:32;;;;;;;20.30;18.10;;;;;;;6.08;100.00;99317.33;104974;1274;60648;-73
2022/01/02 06:44:59;;;;;;;17.40;15.60;;;;;;;6.07;100.00;99305.14;105193;1271;61017;-73
2022/01/02 06:47:25;;;;;;;20.60;16.20;;;;;;;6.08;100.00;99301.08;105129;1271;60415;-72
2022/01/02 06:49:52;;;;;;;17.30;14.70;;;;;;;6.11;100.00;99291.40;105171;1271;70326;-72
2022/01/02 06:52:18;;;;;;;16.10;14.40;;;;;;;6.13;100.00;99281.45;105148;1271;60472;-72
2022/01/02 06:54:45;;;;;;;18.00;13.90;;;;;;;6.14;100.00;99275.05;105117;1271;60495;-72
2022/01/02 06:57:12;;;;;;;14.30;12.50;;;;;;;6.15;100.00;99269.88;105046;1271;60385;-74
2022/01/02 06:59:38;;;;;;;17.10;13.70;;;;;;;6.17;100.00;99267.70;105015;1272;60395;-72
2022/01/02 07:02:05;;;;;;;16.30;13.60;;;;;;;6.14;100.00;99260.75;105174;1271;69161;-73
2022/01/02 07:04:32;;;;;;;17.80;15.00;;;;;;;6.11;100.00;99248.89;105138;1271;74149;-72
2022/01/02 07:06:58;;;;;;;17.70;15.20;;;;;;;6.12;100.00;99247.25;105105;1271;60463;-73
2022/01/02 07:09:25;;;;;;;16.70;14.30;;;;;;;6.13;100.00;99250.92;105104;1271;60381;-72
2022/01/02 07:11:51;;;;;;;17.90;15.00;;;;;;;6.16;100.00;99255.05;105145;1271;60395;-72
2022/01/02 07:14:18;;;;;;;15.60;13.60;;;;;;;6.18;100.00;99256.91;105142;1271;60520;-72
2022/01/02 07:16:44;;;;;;;15.20;13.60;;;;;;;6.19;100.00;99247.86;105122;1271;60478;-73
2022/01/02 07:19:10;;;;;;;14.10;12.70;;;;;;;6.21;100.00;99238.74;105118;1271;60584;-73
2022/01/02 07:21:37;;;;;;;15.10;13.50;;;;;;;6.25;100.00;99231.14;105131;1271;60501;-73
2022/01/02 07:24:04;;;;;;;14.30;12.80;;;;;;;6.29;100.00;99229.73;105127;1271;60520;-74
2022/01/02 07:26:30;;;;;;;16.70;14.70;;;;;;;6.34;100.00;99225.96;105149;1271;70128;-75
2022/01/02 07:28:57;;;;;;;19.70;17.30;;;;;;;6.42;100.00;99222.81;105091;1271;60494;-74
2022/01/02 07:31:24;;;;;;;21.20;19.10;;;;;;;6.50;100.00;99220.32;105128;1271;60564;-74
2022/01/02 07:33:50;;;;;;;18.90;17.00;;;;;;;6.57;100.00;99219.10;105127;1271;60795;-72
2022/01/02 07:36:17;;;;;;;17.50;15.80;;;;;;;6.64;100.00;99212.95;105125;1271;60447;-73
2022/01/02 07:38:43;;;;;;;15.20;13.60;;;;;;;6.69;100.00;99207.60;105007;1274;60494;-73
2022/01/02 07:41:10;;;;;;;16.20;14.50;;;;;;;6.74;100.00;99201.15;105162;1271;60491;-73
2022/01/02 07:43:36;;;;;;;16.40;14.80;;;;;;;6.81;100.00;99204.15;105089;1271;60610;-73
2022/01/02 07:46:03;;;;;;;26.80;23.90;;;;;;;6.87;100.00;99205.67;105136;1271;61802;-73
2022/01/02 07:48:29;;;;;;;18.50;16.70;;;;;;;6.93;100.00;99205.88;105142;1271;74296;-72
2022/01/02 07:50:56;;;;;;;20.30;17.10;;;;;;;6.94;100.00;99201.60;105142;1271;60473;-73
2022/01/02 07:53:22;;;;;;;19.40;16.90;;;;;;;6.96;100.00;99187.89;104915;1272;60510;-74
2022/01/02 07:55:50;;;;;;;17.60;15.70;;;;;;;7.01;100.00;99185.35;105150;1271;60469;-73
2022/01/02 07:58:16;;;;;;;25.80;23.00;;;;;;;7.06;100.00;99172.94;105187;1271;60472;-74
2022/01/02 08:00:43;;;;;;;18.20;16.50;;;;;;;7.12;100.00;99165.75;105076;1271;75461;-72
2022/01/02 08:03:09;;;;;;;19.00;16.90;;;;;;;7.16;100.00;99152.84;105093;1271;70139;-75
2022/01/02 08:05:36;;;;;;;18.80;16.90;;;;;;;7.20;100.00;99143.42;105097;1271;60529;-74
2022/01/02 08:08:02;;;;;;;18.60;16.70;;;;;;;7.25;100.00;99136.27;104878;1276;61056;-72
2022/01/02 08:10:29;;;;;;;28.00;21.50;;;;;;;7.33;100.00;99137.66;105049;1271;60474;-73
2022/01/02 08:12:56;;;;;;;20.90;18.80;;;;;;;7.42;100.00;99144.96;105086;1271;74440;-73
2022/01/02 08:15:22;;;;;;;23.90;21.40;;;;;;;7.42;100.00;99146.55;105059;1271;69382;-73
2022/01/02 08:17:49;;;;;;;18.80;16.90;;;;;;;7.40;100.00;99151.05;105096;1271;60497;-71
2022/01/02 08:20:15;;;;;;;19.50;17.60;;;;;;;7.38;100.00;99154.02;105037;1271;60448;-73
2022/01/02 08:22:42;;;;;;;23.00;20.00;;;;;;;7.37;100.00;99150.71;105056;1271;62140;-74
2022/01/02 08:25:08;;;;;;;24.00;21.60;;;;;;;7.40;100.00;99149.65;105062;1271;74213;-71
2022/01/02 08:27:36;;;;;;;34.00;30.70;;;;;;;7.44;100.00;99152.30;104941;1271;67542;-72
2022/01/02 08:30:04;;;;;;;27.80;25.00;;;;;;;7.48;100.00;99155.77;105046;1271;74606;-72
2022/01/02 08:32:31;;;;;;;31.30;28.20;;;;;;;7.50;100.00;99153.05;104908;1271;60821;-74
2022/01/02 08:34:57;;;;;;;29.20;26.20;;;;;;;7.53;100.00;99143.19;105121;1271;61555;-74
2022/01/02 08:37:24;;;;;;;31.80;28.60;;;;;;;7.56;100.00;99143.86;105085;1271;60447;-73
2022/01/02 08:39:50;;;;;;;30.70;27.60;;;;;;;7.60;100.00;99144.36;105132;1271;69141;-72
2022/01/02 08:42:17;;;;;;;28.90;26.10;;;;;;;7.65;100.00;99135.27;105123;1271;60370;-73
2022/01/02 08:44:44;;;;;;;29.30;26.40;;;;;;;7.70;100.00;99128.11;104899;1271;60584;-74
2022/01/02 08:47:11;;;;;;;30.50;27.30;;;;;;;7.76;100.00;99124.76;105054;1271;61731;-73
2022/01/02 08:49:37;;;;;;;29.40;26.30;;;;;;;7.83;100.00;99122.13;105071;1271;74568;-73
2022/01/02 08:52:04;;;;;;;30.90;26.00;;;;;;;7.87;100.00;99125.98;105043;1271;69419;-74
2022/01/02 08:54:31;;;;;;;28.40;25.40;;;;;;;7.93;100.00;99122.63;105101;1271;60470;-74
2022/01/02 08:56:57;;;;;;;29.80;26.40;;;;;;;8.07;100.00;99122.58;105125;1271;60372;-72
2022/01/02 08:59:27;;;;;;;38.10;33.90;;;;;;;8.17;100.00;99114.98;105104;1271;60386;-72
2022/01/02 09:01:54;;;;;;;;;;;;;;;8.25;100.00;99109.91;105107;1271;74511;-72
2022/01/02 09:04:21;;;;;;;49.50;41.50;;;;;;;8.35;100.00;99111.14;105109;1271;69659;-72
2022/01/02 09:06:48;;;;;;;50.50;44.90;;;;;;;8.43;100.00;99111.77;105122;1271;60568;-73
2022/01/02 09:09:14;;;;;;;53.30;48.00;;;;;;;8.49;100.00;99113.59;104898;1276;60446;-72
2022/01/02 09:11:41;;;;;;;59.10;51.00;;;;;;;8.52;100.00;99112.30;105140;1271;61807;-72
2022/01/02 09:14:07;;;;;;;59.90;53.60;;;;;;;8.59;100.00;99110.31;105113;1271;74453;-72
2022/01/02 09:16:34;;;;;;;57.50;51.70;;;;;;;8.67;100.00;99113.58;105089;1271;60469;-72
2022/01/02 09:19:00;;;;;;;52.90;47.30;;;;;;;8.76;100.00;99112.05;105110;1271;74465;-74
2022/01/02 09:21:27;;;;;;;50.90;45.50;;;;;;;8.86;100.00;99105.44;105125;1271;60356;-82
2022/01/02 09:23:53;;;;;;;47.60;41.70;;;;;;;8.95;100.00;99100.82;105507;1271;60383;-73
2022/01/02 09:26:20;;;;;;;54.80;42.50;;;;;;;9.05;100.00;99100.77;105195;1271;60470;-79
2022/01/02 09:28:46;;;;;;;52.80;41.60;;;;;;;9.12;100.00;99096.83;105276;1271;69299;-75
2022/01/02 09:31:13;;;;;;;46.00;39.40;;;;;;;9.21;100.00;99100.55;105145;1271;60363;-78
2022/01/02 09:33:39;;;;;;;51.20;41.40;;;;;;;9.28;100.00;99105.10;105243;1271;60510;-77
2022/01/02 09:36:07;;;;;;;50.30;44.80;;;;;;;9.33;100.00;99104.11;105237;1271;60687;-78
2022/01/02 09:38:34;;;;;;;54.40;46.90;;;;;;;9.37;100.00;99095.66;105211;1271;74277;-75
2022/01/02 09:41:01;;;;;;;51.60;43.90;;;;;;;9.44;100.00;99092.73;105126;1271;60562;-76
2022/01/02 09:43:27;;;;;;;45.90;39.70;;;;;;;9.54;100.00;99091.29;105245;1271;72408;-75
2022/01/02 09:45:54;;;;;;;50.30;42.10;;;;;;;9.59;100.00;99089.89;105212;1271;60498;-75
2022/01/02 09:48:22;;;;;;;40.30;33.20;;;;;;;9.70;100.00;99091.92;105211;1271;60829;-79
2022/01/02 09:50:50;;;;;;;35.70;28.70;;;;;;;9.78;100.00;99093.67;105393;1271;73902;-74
2022/01/02 09:53:17;;;;;;;28.00;23.60;;;;;;;9.85;100.00;99088.98;105215;1270;70884;-76
2022/01/02 09:55:43;;;;;;;24.50;21.50;;;;;;;9.94;100.00;99084.71;105067;1271;70813;-74
2022/01/02 09:58:12;;;;;;;24.60;20.50;;;;;;;9.97;100.00;99087.20;105197;1271;60984;-74
2022/01/02 10:00:43;;;;;;;23.20;19.70;;;;;;;9.99;100.00;99080.31;105179;1271;60473;-76
2022/01/02 10:03:11;;;;;;;28.40;22.00;;;;;;;10.05;100.00;99079.02;105218;1271;74537;-74
2022/01/02 10:05:55;;;;;;;22.80;18.80;;;;;;;10.12;100.00;99079.48;105193;1271;66311;-76
2022/01/02 10:08:23;;;;;;;22.70;18.40;;;;;;;10.17;100.00;99074.05;105115;1271;73474;-72
2022/01/02 10:11:05;;;;;;;22.60;16.50;;;;;;;10.26;100.00;99067.44;105156;1271;60382;-73
2022/01/02 10:13:51;;;;;;;22.00;16.70;;;;;;;10.42;100.00;99060.58;105197;1271;60907;-78
2022/01/02 10:16:31;;;;;;;19.90;15.10;;;;;;;10.57;100.00;99055.63;106027;1271;73954;-75
2022/01/02 10:19:01;;;;;;;18.20;15.90;;;;;;;10.69;100.00;99051.50;106511;1271;69318;-75
2022/01/02 10:21:28;;;;;;;19.80;14.70;;;;;;;10.76;100.00;99047.27;106711;1271;73565;-79
2022/01/02 10:24:16;;;;;;;19.30;15.70;;;;;;;10.80;100.00;99050.73;106314;1271;59224;-73
2022/01/02 10:27:05;;;;;;;19.30;16.50;;;;;;;10.87;100.00;99043.68;105241;1271;60954;-75
2022/01/02 10:29:53;;;;;;;18.20;15.60;;;;;;;10.93;100.00;99041.69;104991;1271;74103;-77
2022/01/02 10:32:23;;;;;;;25.40;19.80;;;;;;;10.99;100.00;99034.02;105302;1271;69235;-71
2022/01/02 10:34:51;;;;;;;16.70;13.40;;;;;;;11.00;100.00;99034.45;105948;1271;73117;-73
2022/01/02 10:37:27;;;;;;;20.20;14.70;;;;;;;11.05;100.00;99032.70;105044;1271;60589;-71
2022/01/02 10:39:53;;;;;;;15.10;11.10;;;;;;;11.11;100.00;99039.73;105128;1271;60921;-72
2022/01/02 10:42:20;;;;;;;13.80;9.10;;;;;;;11.15;100.00;99035.59;105150;1271;60539;-71
2022/01/02 10:44:46;;;;;;;11.10;8.40;;;;;;;11.14;100.00;99034.96;105119;1271;68499;-71
2022/01/02 10:47:24;;;;;;;11.40;8.40;;;;;;;11.12;100.00;99028.31;105042;1271;73118;-71
2022/01/02 10:50:03;;;;;;;13.40;8.10;;;;;;;11.09;100.00;99025.89;105925;1271;60477;-71
2022/01/02 10:52:34;;;;;;;8.40;6.10;;;;;;;11.04;100.00;99022.48;105110;1271;62493;-71
2022/01/02 10:55:21;;;;;;;10.50;7.00;;;;;;;10.99;100.00;99018.52;105145;1271;75803;-71
2022/01/02 10:57:49;;;;;;;11.20;8.00;;;;;;;10.97;100.00;99016.50;105136;1271;70230;-71
2022/01/02 11:00:17;;;;;;;8.70;7.70;;;;;;;10.97;100.00;99009.80;105149;1271;73301;-71
2022/01/02 11:02:45;;;;;;;11.80;10.50;;;;;;;10.94;100.00;99008.05;105102;1271;60500;-71
2022/01/02 11:05:14;;;;;;;12.00;8.50;;;;;;;10.91;100.00;99006.13;105197;1271;60873;-73
2022/01/02 11:07:43;;;;;;;13.60;9.50;;;;;;;10.91;100.00;98997.37;105105;1271;74014;-72
2022/01/02 11:10:13;;;;;;;12.50;8.30;;;;;;;10.91;100.00;98991.52;105229;1271;69257;-71
2022/01/02 11:12:41;;;;;;;13.60;9.90;;;;;;;10.91;100.00;98984.91;105191;1271;73522;-72
2022/01/02 11:15:11;;;;;;;19.70;14.30;;;;;;;10.90;100.00;98977.37;105148;1271;61201;-72
2022/01/02 11:17:38;;;;;;;19.10;12.70;;;;;;;10.90;100.00;98976.33;105107;1271;62405;-71
2022/01/02 11:20:17;;;;;;;13.30;9.00;;;;;;;10.91;100.00;98968.36;105131;1271;73301;-73